Columbus, Ohio
Traffic Map
Current Weather Conditions
Columbus, Ohio
Overcast
Overcast
40°
Feels Like: 35°
Wind Chill: 35° Ceiling: 800
Heat Index: 40° Visibility: 10mi
Dew Point: 36° Wind: 7mph
Humidity: 86% Direction: 240° (WSW)
Pressure: 30.1in Gusts: 0mph
Raw Report DataKCMH 190651Z 24006KT 10SM OVC008 04/02 A3010 RMK AO2 SLP199 T00440022
Traffic Incident Summary
Active as of:
Severity:
Category:
InformationThere was an issue retrieving the traffic information for this location. Please try a different location or try again shortly.
Advertisements
Track Severe Weather on mobile